createdAt,value
2018-10-07T00:01:24.363Z,18.24
2018-10-07T00:03:53.551Z,18.29
2018-10-07T00:06:22.717Z,18.27
2018-10-07T00:08:51.864Z,18.28
2018-10-07T00:11:21.036Z,18.30
2018-10-07T00:13:50.263Z,18.28
2018-10-07T00:16:19.428Z,18.24
2018-10-07T00:18:48.612Z,18.23
2018-10-07T00:21:17.767Z,18.29
2018-10-07T00:23:46.923Z,18.25
2018-10-07T00:26:16.083Z,18.26
2018-10-07T00:28:45.239Z,18.30
2018-10-07T00:31:14.404Z,18.26
2018-10-07T00:33:43.555Z,18.28
2018-10-07T00:36:12.739Z,18.28
2018-10-07T00:38:41.889Z,18.32
2018-10-07T00:41:11.052Z,18.30
2018-10-07T00:43:40.236Z,18.26
2018-10-07T00:46:09.908Z,18.33
2018-10-07T00:48:39.135Z,18.32
2018-10-07T00:51:08.371Z,18.28
2018-10-07T00:53:37.651Z,18.29
2018-10-07T00:56:07.048Z,18.35
2018-10-07T00:58:36.552Z,18.24
2018-10-07T01:01:06.887Z,18.17
2018-10-07T01:03:36.571Z,18.08
2018-10-07T01:06:06.579Z,18.08
2018-10-07T01:08:36.487Z,18.03
2018-10-07T01:11:06.699Z,18.04
2018-10-07T01:13:36.680Z,18.08
2018-10-07T01:16:06.683Z,18.08
2018-10-07T01:18:36.712Z,18.12
2018-10-07T01:21:06.771Z,18.10
2018-10-07T01:23:36.736Z,18.02
2018-10-07T01:26:32.358Z,18.03
2018-10-07T01:29:01.916Z,17.98
2018-10-07T01:31:31.095Z,18.04
2018-10-07T01:34:00.265Z,17.91
2018-10-07T01:36:29.427Z,17.88
2018-10-07T01:38:59.864Z,17.85
2018-10-07T01:41:29.018Z,17.83
2018-10-07T01:43:58.418Z,17.86
2018-10-07T01:46:27.583Z,17.85
2018-10-07T01:48:56.763Z,17.77
2018-10-07T01:51:25.949Z,17.78
2018-10-07T01:53:55.106Z,17.82
2018-10-07T01:56:24.289Z,17.83
2018-10-07T01:58:53.475Z,17.81
2018-10-07T02:01:22.664Z,17.71
2018-10-07T02:03:51.822Z,17.72
2018-10-07T02:06:20.982Z,17.64
2018-10-07T02:08:50.142Z,17.63
2018-10-07T02:11:19.323Z,17.59
2018-10-07T02:13:48.673Z,17.63
2018-10-07T02:16:17.831Z,17.60
2018-10-07T02:18:47.138Z,17.47
2018-10-07T02:21:16.336Z,17.51
2018-10-07T02:23:45.524Z,17.43
2018-10-07T02:26:14.958Z,17.34
2018-10-07T02:28:44.152Z,17.36
2018-10-07T02:31:13.322Z,17.34
2018-10-07T02:33:42.475Z,17.31
2018-10-07T02:36:11.650Z,17.36
2018-10-07T02:38:40.791Z,17.31
2018-10-07T02:41:09.949Z,17.26
2018-10-07T02:43:39.094Z,17.21
2018-10-07T02:46:08.635Z,17.20
2018-10-07T02:48:37.787Z,17.17
2018-10-07T02:51:07.063Z,17.18
2018-10-07T02:53:36.823Z,17.10
2018-10-07T02:56:06.899Z,17.03
2018-10-07T02:58:36.727Z,17.07
2018-10-07T03:01:06.770Z,17.06
2018-10-07T03:03:36.731Z,17.03
2018-10-07T03:06:06.923Z,17.09
2018-10-07T03:08:36.807Z,16.92
2018-10-07T03:11:06.951Z,16.88
2018-10-07T03:13:36.835Z,16.89
2018-10-07T03:16:06.995Z,16.82
2018-10-07T03:18:36.874Z,16.81
2018-10-07T03:21:07.243Z,16.81
2018-10-07T03:23:36.910Z,16.84
2018-10-07T03:26:07.075Z,16.79
2018-10-07T03:33:43.806Z,16.47
2018-10-07T03:36:12.945Z,16.49
2018-10-07T03:38:42.095Z,16.53
2018-10-07T03:41:11.266Z,16.61
2018-10-07T03:43:40.474Z,16.67
2018-10-07T03:46:09.622Z,16.72
2018-10-07T03:48:38.798Z,16.86
2018-10-07T03:51:07.991Z,16.83
2018-10-07T03:53:37.159Z,16.84
2018-10-07T03:56:06.955Z,16.92
2018-10-07T03:58:36.862Z,16.80
2018-10-07T04:01:07.089Z,16.74
2018-10-07T04:03:36.974Z,16.83
2018-10-07T04:06:07.032Z,16.85
2018-10-07T04:08:37.544Z,16.86
2018-10-07T04:11:06.998Z,16.80
2018-10-07T04:13:36.939Z,16.84
2018-10-07T04:16:06.946Z,16.87
2018-10-07T04:18:36.967Z,16.74
2018-10-07T04:21:07.003Z,16.71
2018-10-07T04:23:37.016Z,16.75
2018-10-07T04:26:07.171Z,16.67
2018-10-07T04:28:36.950Z,16.63
2018-10-07T04:31:07.002Z,16.53
2018-10-07T04:33:37.026Z,16.48
2018-10-07T04:36:06.979Z,16.48
2018-10-07T04:38:37.015Z,16.43
2018-10-07T04:41:07.478Z,16.41
2018-10-07T04:43:37.071Z,16.39
2018-10-07T04:46:07.214Z,16.44
2018-10-07T04:48:37.227Z,16.33
2018-10-07T04:51:07.216Z,16.34
2018-10-07T04:53:37.323Z,16.29
2018-10-07T04:56:07.318Z,16.25
2018-10-07T04:58:37.038Z,16.18
2018-10-07T05:01:07.066Z,16.22
2018-10-07T05:03:37.159Z,16.26
2018-10-07T05:06:06.347Z,16.20
2018-10-07T05:08:35.948Z,16.16
2018-10-07T05:11:06.147Z,16.07
2018-10-07T05:13:46.601Z,16.10
2018-10-07T05:16:30.168Z,15.99
2018-10-07T05:18:59.958Z,15.80
2018-10-07T05:21:29.203Z,15.67
2018-10-07T05:23:58.974Z,15.84
2018-10-07T05:26:28.785Z,15.87
2018-10-07T05:28:57.954Z,15.86
2018-10-07T05:31:27.110Z,15.90
2018-10-07T05:33:56.299Z,15.94
2018-10-07T05:36:25.462Z,15.97
2018-10-07T05:38:54.633Z,15.90
2018-10-07T05:41:23.840Z,15.87
2018-10-07T05:43:53.123Z,15.99
2018-10-07T05:46:22.292Z,15.98
2018-10-07T05:48:51.486Z,15.95
2018-10-07T05:51:20.656Z,15.90
2018-10-07T05:53:51.355Z,15.81
2018-10-07T05:56:23.906Z,15.70
2018-10-07T05:59:02.458Z,15.60
2018-10-07T06:01:36.175Z,15.72
2018-10-07T06:04:48.246Z,15.70
2018-10-07T06:07:17.592Z,15.67
2018-10-07T06:09:46.749Z,15.73
2018-10-07T06:12:15.927Z,15.74
2018-10-07T06:15:02.406Z,15.81
2018-10-07T06:17:31.478Z,15.80
2018-10-07T06:20:00.639Z,15.84
2018-10-07T06:22:29.784Z,15.81
2018-10-07T06:24:58.955Z,15.85
2018-10-07T06:27:28.126Z,15.86
2018-10-07T06:29:57.307Z,15.87
2018-10-07T06:32:26.470Z,15.91
2018-10-07T06:34:55.626Z,15.81
2018-10-07T06:37:24.775Z,15.89
2018-10-07T06:39:54.022Z,15.97
2018-10-07T06:42:23.145Z,15.94
2018-10-07T06:44:52.310Z,15.99
2018-10-07T06:47:21.465Z,15.97
2018-10-07T06:49:50.644Z,16.00
2018-10-07T06:52:19.829Z,16.08
2018-10-07T06:54:49.075Z,16.25
2018-10-07T06:57:18.221Z,16.29
2018-10-07T06:59:47.494Z,16.28
2018-10-07T07:02:16.630Z,16.24
2018-10-07T07:04:49.155Z,16.31
2018-10-07T07:07:18.307Z,16.35
2018-10-07T07:09:47.471Z,16.37
2018-10-07T07:12:16.845Z,16.40
2018-10-07T07:14:46.055Z,16.49
2018-10-07T07:17:15.251Z,16.61
2018-10-07T07:19:44.693Z,16.69
2018-10-07T07:22:13.799Z,16.76
2018-10-07T07:24:43.093Z,16.74
2018-10-07T07:27:12.310Z,16.80
2018-10-07T07:29:41.632Z,16.99
2018-10-07T07:32:10.798Z,17.08
2018-10-07T07:34:39.960Z,17.11
2018-10-07T07:37:09.237Z,17.26
2018-10-07T07:39:38.531Z,17.32
2018-10-07T07:42:07.739Z,17.43
2018-10-07T07:44:37.523Z,17.50
2018-10-07T07:47:07.528Z,17.63
2018-10-07T07:49:37.526Z,17.72
2018-10-07T07:52:07.474Z,17.85
2018-10-07T07:54:37.519Z,17.94
2018-10-07T07:57:13.469Z,18.15
2018-10-07T07:59:42.745Z,18.25
2018-10-07T08:02:16.671Z,18.50
2018-10-07T08:04:46.389Z,18.62
2018-10-07T08:07:15.566Z,18.66
2018-10-07T08:09:44.757Z,18.71
2018-10-07T08:12:13.962Z,18.73
2018-10-07T08:14:43.160Z,18.77
2018-10-07T08:17:12.371Z,18.84
2018-10-07T08:19:41.563Z,18.66
2018-10-07T08:22:10.752Z,18.87
2018-10-07T08:24:39.907Z,18.99
2018-10-07T08:27:09.146Z,19.13
2018-10-07T08:29:38.502Z,19.22
2018-10-07T08:32:07.665Z,19.31
2018-10-07T08:34:37.662Z,19.37
2018-10-07T08:37:07.608Z,19.54
2018-10-07T08:39:37.611Z,19.70
2018-10-07T08:42:07.635Z,19.80
2018-10-07T08:44:37.533Z,19.88
2018-10-07T08:47:07.779Z,19.98
2018-10-07T08:49:37.707Z,20.01
2018-10-07T08:52:07.554Z,20.09
2018-10-07T08:54:37.764Z,20.19
2018-10-07T08:57:07.981Z,20.22
2018-10-07T08:59:37.570Z,20.23
2018-10-07T09:02:07.654Z,20.31
2018-10-07T09:04:37.674Z,20.37
2018-10-07T09:07:07.634Z,20.44
2018-10-07T09:09:37.646Z,20.44
2018-10-07T09:12:07.858Z,20.60
2018-10-07T09:14:37.699Z,20.64
2018-10-07T09:17:07.796Z,20.68
2018-10-07T09:19:37.698Z,20.80
2018-10-07T09:22:07.751Z,20.85
2018-10-07T09:24:37.612Z,20.91
2018-10-07T09:27:07.802Z,20.98
2018-10-07T09:29:37.959Z,21.08
2018-10-07T09:32:07.751Z,21.16
2018-10-07T09:34:37.766Z,21.24
2018-10-07T09:37:08.166Z,21.31
2018-10-07T09:39:37.404Z,21.38
2018-10-07T09:42:07.699Z,21.46
2018-10-07T09:44:37.936Z,21.49
2018-10-07T09:47:07.744Z,21.51
2018-10-07T09:49:38.007Z,21.51
2018-10-07T09:52:07.872Z,21.48
2018-10-07T09:54:37.715Z,21.57
2018-10-07T09:57:07.842Z,21.59
2018-10-07T09:59:37.779Z,21.52
2018-10-07T10:02:07.959Z,21.55
2018-10-07T10:04:37.874Z,21.55
2018-10-07T10:07:07.956Z,21.61
2018-10-07T10:09:37.142Z,21.66
2018-10-07T10:12:06.387Z,21.66
2018-10-07T10:14:35.701Z,21.68
2018-10-07T10:17:11.317Z,21.70
2018-10-07T10:20:17.846Z,21.85
2018-10-07T10:25:04.611Z,21.71
2018-10-07T10:28:06.579Z,21.48
2018-10-07T10:31:20.766Z,21.70
2018-10-07T10:34:17.515Z,21.72
2018-10-07T10:37:09.229Z,21.88
2018-10-07T10:40:15.895Z,21.85
2018-10-07T10:42:51.047Z,21.85
2018-10-07T10:45:43.948Z,21.97
2018-10-07T10:48:22.831Z,21.96
2018-10-07T10:51:34.291Z,22.04
2018-10-07T10:55:19.907Z,22.05
2018-10-07T10:57:54.150Z,22.03
2018-10-07T11:00:43.662Z,22.12
2018-10-07T11:03:40.954Z,22.14
2018-10-07T11:06:20.079Z,22.18
2018-10-07T11:10:05.975Z,22.26
2018-10-07T11:12:53.225Z,22.25
2018-10-07T11:16:05.985Z,22.34
2018-10-07T11:18:50.838Z,22.28
2018-10-07T11:22:49.386Z,22.27
2018-10-07T11:25:44.019Z,22.14
2018-10-07T11:28:39.199Z,22.42
2018-10-07T11:31:37.063Z,22.39
2018-10-07T11:34:29.365Z,22.42
2018-10-07T11:37:11.387Z,22.50
2018-10-07T11:41:27.907Z,22.56
2018-10-07T11:44:27.251Z,22.39
2018-10-07T11:47:26.255Z,22.51
2018-10-07T11:50:10.795Z,22.58
2018-10-07T11:52:59.271Z,22.71
2018-10-07T11:55:28.431Z,22.81
2018-10-07T11:57:57.601Z,22.77
2018-10-07T12:00:26.907Z,22.70
2018-10-07T12:02:56.091Z,22.74
2018-10-07T12:05:25.258Z,22.73
2018-10-07T12:07:54.507Z,22.73
2018-10-07T12:10:24.720Z,22.85
2018-10-07T12:12:53.883Z,22.86
2018-10-07T12:15:23.030Z,22.88
2018-10-07T12:17:52.190Z,22.86
2018-10-07T12:20:21.346Z,22.83
2018-10-07T12:22:50.705Z,22.91
2018-10-07T12:25:19.914Z,22.93
2018-10-07T12:27:49.427Z,22.94
2018-10-07T12:30:18.683Z,22.97
2018-10-07T12:32:47.855Z,23.07
2018-10-07T12:35:17.114Z,23.00
2018-10-07T12:37:46.320Z,23.03
2018-10-07T12:40:15.560Z,22.98
2018-10-07T12:42:44.826Z,23.01
2018-10-07T12:45:14.035Z,23.01
2018-10-07T12:47:43.206Z,22.98
2018-10-07T12:50:12.372Z,22.83
2018-10-07T12:52:42.051Z,22.80
2018-10-07T12:55:11.344Z,22.91
2018-10-07T12:57:40.627Z,22.94
2018-10-07T13:00:10.112Z,22.93
2018-10-07T13:02:39.267Z,22.92
2018-10-07T13:05:08.513Z,23.00
2018-10-07T13:07:38.182Z,23.09
2018-10-07T13:10:08.230Z,23.15
2018-10-07T13:12:38.154Z,23.01
2018-10-07T13:15:08.304Z,23.04
2018-10-07T13:17:38.218Z,23.04
2018-10-07T13:20:08.239Z,23.09
2018-10-07T13:22:38.254Z,23.10
2018-10-07T13:25:08.287Z,23.21
2018-10-07T13:27:38.358Z,23.12
2018-10-07T13:30:08.463Z,23.01
2018-10-07T13:32:38.286Z,22.91
2018-10-07T13:35:08.306Z,23.01
2018-10-07T13:37:38.253Z,22.98
2018-10-07T13:40:08.332Z,23.02
2018-10-07T13:42:38.295Z,22.98
2018-10-07T13:45:08.231Z,22.97
2018-10-07T13:47:38.539Z,22.93
2018-10-07T13:50:08.279Z,22.90
2018-10-07T13:52:38.267Z,22.85
2018-10-07T13:55:08.309Z,22.88
2018-10-07T13:57:38.347Z,22.87
2018-10-07T14:00:08.470Z,22.93
2018-10-07T14:02:38.376Z,22.85
2018-10-07T14:05:08.371Z,22.78
2018-10-07T14:07:38.387Z,22.81
2018-10-07T14:10:08.426Z,22.79
2018-10-07T14:12:38.414Z,22.78
2018-10-07T14:15:08.777Z,22.80
2018-10-07T14:17:38.400Z,22.76
2018-10-07T14:20:08.434Z,22.79
2018-10-07T14:22:38.471Z,22.68
2018-10-07T14:25:08.538Z,22.62
2018-10-07T14:27:38.559Z,22.61
2018-10-07T14:30:08.740Z,22.72
2018-10-07T14:32:38.475Z,22.72
2018-10-07T14:35:08.692Z,22.66
2018-10-07T14:37:38.395Z,22.65
2018-10-07T14:40:08.447Z,22.67
2018-10-07T14:42:38.437Z,22.64
2018-10-07T14:45:08.489Z,22.64
2018-10-07T14:47:38.534Z,22.61
2018-10-07T14:50:08.499Z,22.56
2018-10-07T14:52:38.603Z,22.57
2018-10-07T14:55:08.514Z,22.59
2018-10-07T14:57:38.453Z,22.57
2018-10-07T15:00:08.748Z,22.56
2018-10-07T15:02:38.445Z,22.53
2018-10-07T15:05:08.411Z,22.51
2018-10-07T15:07:38.470Z,22.50
2018-10-07T15:10:08.479Z,22.49
2018-10-07T15:12:38.674Z,22.47
2018-10-07T15:15:08.750Z,22.44
2018-10-07T15:17:38.526Z,22.38
2018-10-07T15:20:08.467Z,22.37
2018-10-07T15:22:38.783Z,22.37
2018-10-07T15:25:08.451Z,22.31
2018-10-07T15:27:38.567Z,22.29
2018-10-07T15:30:08.591Z,22.28
2018-10-07T15:32:38.623Z,22.28
2018-10-07T15:35:08.634Z,22.23
2018-10-07T15:37:40.312Z,22.15
2018-10-07T15:40:09.807Z,22.18
2018-10-07T15:42:39.028Z,22.11
2018-10-07T15:45:10.046Z,22.10
2018-10-07T15:47:39.377Z,22.07
2018-10-07T15:50:08.562Z,22.06
2018-10-07T15:52:38.516Z,22.04
2018-10-07T15:55:08.527Z,22.00
2018-10-07T15:57:38.657Z,21.96
2018-10-07T16:00:08.527Z,21.95
2018-10-07T16:02:38.535Z,21.91
2018-10-07T16:05:08.602Z,21.86
2018-10-07T16:07:38.583Z,21.82
2018-10-07T16:10:08.259Z,21.77
2018-10-07T16:12:38.680Z,21.72
2018-10-07T16:15:08.638Z,21.68
2018-10-07T16:17:38.610Z,21.62
2018-10-07T16:20:08.835Z,21.59
2018-10-07T16:22:38.647Z,21.55
2018-10-07T16:25:08.607Z,21.52
2018-10-07T16:27:38.623Z,21.52
2018-10-07T16:30:09.846Z,21.43
2018-10-07T16:32:39.011Z,21.38
2018-10-07T16:35:09.737Z,21.35
2018-10-07T16:37:38.934Z,21.31
2018-10-07T16:40:08.688Z,21.29
2018-10-07T16:42:38.693Z,21.25
2018-10-07T16:45:08.708Z,21.21
2018-10-07T16:47:38.689Z,21.19
2018-10-07T16:50:08.702Z,21.13
2018-10-07T16:52:38.698Z,21.09
2018-10-07T16:55:08.645Z,21.06
2018-10-07T16:57:39.018Z,21.03
2018-10-07T17:00:08.868Z,20.96
2018-10-07T17:02:38.770Z,20.97
2018-10-07T17:05:08.851Z,20.85
2018-10-07T17:07:39.319Z,20.84
2018-10-07T17:10:08.784Z,20.79
2018-10-07T17:12:38.756Z,20.74
2018-10-07T17:15:08.763Z,20.68
2018-10-07T17:17:38.786Z,20.65
2018-10-07T17:20:08.717Z,20.59
2018-10-07T17:22:38.866Z,20.60
2018-10-07T17:25:08.816Z,20.55
2018-10-07T17:27:38.743Z,20.50
2018-10-07T17:30:08.747Z,20.49
2018-10-07T17:32:38.773Z,20.51
2018-10-07T17:35:08.769Z,20.45
2018-10-07T17:37:38.814Z,20.40
2018-10-07T17:40:08.824Z,20.36
2018-10-07T17:42:38.997Z,20.32
2018-10-07T17:45:08.938Z,20.29
2018-10-07T17:47:38.766Z,20.28
2018-10-07T17:50:08.780Z,20.21
2018-10-07T17:52:38.791Z,20.16
2018-10-07T17:55:08.886Z,20.15
2018-10-07T17:57:38.850Z,20.08
2018-10-07T18:00:08.856Z,20.01
2018-10-07T18:02:38.964Z,19.95
2018-10-07T18:05:08.889Z,19.92
2018-10-07T18:07:38.812Z,19.88
2018-10-07T18:10:08.819Z,19.87
2018-10-07T18:12:39.274Z,19.83
2018-10-07T18:15:08.889Z,19.82
2018-10-07T18:22:43.707Z,19.43
2018-10-07T18:25:12.867Z,19.50
2018-10-07T18:27:42.010Z,19.53
2018-10-07T18:30:11.214Z,19.56
2018-10-07T18:32:40.459Z,19.49
2018-10-07T18:35:09.662Z,19.48
2018-10-07T18:37:38.984Z,19.47
2018-10-07T18:40:08.949Z,19.39
2018-10-07T18:42:39.027Z,19.40
2018-10-07T18:45:09.023Z,19.35
2018-10-07T18:47:38.919Z,19.31
2018-10-07T18:50:09.142Z,19.29
2018-10-07T18:52:39.263Z,19.23
2018-10-07T18:55:09.077Z,19.18
2018-10-07T18:57:38.991Z,19.15
2018-10-07T19:00:10.719Z,19.09
2018-10-07T19:02:40.215Z,19.02
2018-10-07T19:05:09.338Z,19.03
2018-10-07T19:07:39.088Z,18.99
2018-10-07T19:10:09.199Z,18.95
2018-10-07T19:12:39.035Z,18.90
2018-10-07T19:15:09.218Z,18.89
2018-10-07T19:17:39.136Z,18.85
2018-10-07T19:20:09.037Z,18.83
2018-10-07T19:22:39.268Z,18.76
2018-10-07T19:25:09.040Z,18.80
2018-10-07T19:27:40.265Z,18.74
2018-10-07T19:30:09.721Z,18.68
2018-10-07T19:32:40.106Z,18.64
2018-10-07T19:35:09.382Z,18.64
2018-10-07T19:37:39.151Z,18.66
2018-10-07T19:40:09.103Z,18.62
2018-10-07T19:42:39.037Z,18.62
2018-10-07T19:45:09.093Z,18.54
2018-10-07T19:47:39.074Z,18.50
2018-10-07T19:50:09.403Z,18.34
2018-10-07T19:52:39.140Z,18.43
2018-10-07T19:55:09.154Z,18.51
2018-10-07T19:57:39.153Z,18.44
2018-10-07T20:00:09.180Z,18.46
2018-10-07T20:02:39.214Z,18.45
2018-10-07T20:05:15.979Z,18.41
2018-10-07T20:07:45.199Z,18.39
2018-10-07T20:10:14.367Z,18.25
2018-10-07T20:12:43.567Z,18.19
2018-10-07T20:15:12.735Z,18.17
2018-10-07T20:17:41.879Z,18.15
2018-10-07T20:20:11.064Z,18.15
2018-10-07T20:22:40.294Z,18.09
2018-10-07T20:25:09.467Z,18.08
2018-10-07T20:27:38.682Z,18.05
2018-10-07T20:30:09.067Z,18.00
2018-10-07T20:32:39.204Z,17.99
2018-10-07T20:35:09.159Z,17.94
2018-10-07T20:37:39.305Z,17.93
2018-10-07T20:42:11.719Z,17.88
2018-10-07T20:44:40.887Z,17.55
2018-10-07T20:47:10.051Z,17.56
2018-10-07T20:49:39.205Z,17.58
2018-10-07T20:52:09.282Z,17.59
2018-10-07T20:54:39.242Z,17.57
2018-10-07T20:57:09.259Z,17.60
2018-10-07T20:59:39.262Z,17.53
2018-10-07T21:02:09.296Z,17.57
2018-10-07T21:04:39.315Z,17.54
2018-10-07T21:07:09.371Z,17.48
2018-10-07T21:09:39.226Z,17.51
2018-10-07T21:12:09.258Z,17.46
2018-10-07T21:14:39.279Z,17.48
2018-10-07T21:17:09.454Z,17.52
2018-10-07T21:19:39.385Z,17.47
2018-10-07T21:22:09.376Z,17.44
2018-10-07T21:24:39.486Z,17.43
2018-10-07T21:27:09.383Z,17.40
2018-10-07T21:29:39.384Z,17.36
2018-10-07T21:32:09.348Z,17.31
2018-10-07T21:34:39.303Z,17.29
2018-10-07T21:37:08.454Z,17.25
2018-10-07T21:39:37.593Z,17.21
2018-10-07T21:42:06.744Z,17.18
2018-10-07T21:44:35.886Z,17.21
2018-10-07T21:47:05.076Z,17.06
2018-10-07T21:49:34.229Z,17.00
2018-10-07T21:52:04.282Z,17.01
2018-10-07T21:54:33.417Z,16.91
2018-10-07T21:57:02.565Z,16.98
2018-10-07T21:59:31.755Z,16.92
2018-10-07T22:02:00.922Z,16.83
2018-10-07T22:04:30.485Z,16.81
2018-10-07T22:06:59.643Z,16.86
2018-10-07T22:09:28.839Z,16.98
2018-10-07T22:11:58.488Z,16.87
2018-10-07T22:14:27.667Z,16.77
2018-10-07T22:16:56.846Z,16.68
2018-10-07T22:19:26.174Z,16.60
2018-10-07T22:21:55.508Z,16.52
2018-10-07T22:24:24.682Z,16.51
2018-10-07T22:26:53.845Z,16.58
2018-10-07T22:29:23.000Z,16.51
2018-10-07T22:31:52.254Z,16.42
2018-10-07T22:34:21.412Z,16.42
2018-10-07T22:36:50.568Z,16.45
2018-10-07T22:39:19.715Z,16.42
2018-10-07T22:41:48.879Z,16.42
2018-10-07T22:44:18.037Z,16.48
2018-10-07T22:46:47.408Z,16.36
2018-10-07T22:49:16.653Z,16.37
2018-10-07T22:51:45.827Z,16.30
2018-10-07T22:54:14.990Z,16.34
2018-10-07T22:56:44.184Z,16.29
2018-10-07T22:59:13.347Z,16.28
2018-10-07T23:01:42.507Z,16.21
2018-10-07T23:04:11.767Z,16.11
2018-10-07T23:06:40.930Z,16.14
2018-10-07T23:09:11.550Z,16.16
2018-10-07T23:11:40.951Z,16.16
2018-10-07T23:14:10.250Z,16.12
2018-10-07T23:16:39.621Z,16.09
2018-10-07T23:19:09.545Z,16.02
2018-10-07T23:21:39.540Z,15.97
2018-10-07T23:24:09.588Z,15.99
2018-10-07T23:26:39.568Z,16.03
2018-10-07T23:29:09.581Z,15.94
2018-10-07T23:31:39.639Z,15.89
2018-10-07T23:34:09.687Z,15.74
2018-10-07T23:36:39.696Z,15.80
2018-10-07T23:39:11.041Z,15.88
2018-10-07T23:41:40.215Z,15.73
2018-10-07T23:44:09.647Z,15.76
2018-10-07T23:46:39.594Z,15.65
2018-10-07T23:49:09.619Z,15.72
2018-10-07T23:51:39.701Z,15.73
2018-10-07T23:54:10.775Z,15.69
2018-10-07T23:56:39.918Z,15.66
2018-10-07T23:59:09.699Z,15.62
